< Typhoon 198104 1981 Season Typhoon 198106 >
Typhoon 198105 (JUNE)
General InformationTrack Information on Google MapsDetailed Wind InformationList of All Images || Disaster Info.ResourceGoogle EarthGE AnimationAtom FeedGeoJSON
Detalied Best Track (Time Zone = UTC)
Year Month Day Hour Lat. Long. Pressure (hPa) Wind (kt) Class Image Chart
1981 6 15 12 12.0 132.0 1006 0 2 Image Chart
1981 6 15 18 12.4 131.8 1006 0 2 Image Chart
1981 6 16 00 12.8 131.6 1006 0 2 Image Chart
1981 6 16 06 13.2 131.4 1004 0 2 Image Chart
1981 6 16 12 13.6 131.3 1004 0 2 Image Chart
1981 6 16 18 14.0 131.1 1004 0 2 Image Chart
1981 6 17 00 14.3 130.9 1000 0 2 Image Chart
1981 6 17 06 14.8 130.8 996 0 2 Image Chart
1981 6 17 12 15.5 130.2 990 35 3 Image Chart
1981 6 17 18 16.3 129.4 990 40 3 Image Chart
1981 6 18 00 17.5 128.2 985 45 3 Image Chart
1981 6 18 06 18.5 127.1 980 55 4 Image Chart
1981 6 18 12 19.3 126.2 970 60 4 Image Chart
1981 6 18 18 19.8 125.0 970 60 4 Image Chart
1981 6 19 00 20.5 124.4 970 65 5 Image Chart
1981 6 19 06 20.9 123.5 965 70 5 Image Chart
1981 6 19 12 21.1 123.1 965 70 5 Image Chart
1981 6 19 18 21.8 122.6 965 70 5 Image Chart
1981 6 20 00 22.8 122.5 965 70 5 Image Chart
1981 6 20 06 23.9 122.3 965 70 5 Image Chart
1981 6 20 12 24.9 121.7 980 60 4 Image Chart
1981 6 20 18 25.5 121.7 980 60 4 Image Chart
1981 6 21 00 26.5 121.9 980 55 4 Image Chart
1981 6 21 06 27.6 122.6 985 50 4 Image Chart
1981 6 21 12 28.7 123.5 990 45 3 Image Chart
1981 6 21 18 29.8 124.4 990 45 3 Image Chart
1981 6 22 00 31.0 125.3 990 45 3 Image Chart
1981 6 22 06 32.3 127.1 990 45 3 Image Chart
1981 6 22 12 33.5 130.0 992 35 3 Image Chart
1981 6 22 18 35.0 134.0 994 0 2 Image Chart
1981 6 23 00 36.5 138.5 995 0 2 Image Chart
1981 6 23 06 37.0 142.0 996 0 6 Image Chart
1981 6 23 12 38.0 146.0 998 0 6 Image Chart
1981 6 23 18 39.0 150.0 1000 0 6 Image Chart
1981 6 24 00 40.0 153.0 1002 0 6 Image Chart
1981 6 24 06 41.0 156.0 1000 0 6 Image Chart
1981 6 24 12 42.5 158.5 998 0 6 Image Chart
1981 6 24 18 44.0 161.0 998 0 6 Image Chart
1981 6 25 00 45.0 163.0 998 0 6 Image Chart
1981 6 25 06 46.0 163.5 1000 0 6 Image Chart
1981 6 25 12 47.0 164.0 1000 0 6 Image Chart
1981 6 25 18 47.5 164.0 1000 0 6 Image Chart
1981 6 26 00 48.0 164.0 1000 0 6 Image Chart
1981 6 26 06 48.5 164.0 1000 0 6 Image Chart
1981 6 26 12 49.0 164.0 1004 0 6 Image Chart
Japan Meteorological Agency Best Track Data | Correction Date : 1992-10-21
< Typhoon 198104 1981 Season Typhoon 198106 >

Help